sensor_id;sensor_type;location;lat;lon;timestamp;P1;durP1;ratioP1;P2;durP2;ratioP2
70153;SDS011;57519;51.494;-2.626;2022-12-07T00:01:08;12.10;;;7.23;;
70153;SDS011;57519;51.494;-2.626;2022-12-07T00:03:37;14.13;;;7.35;;
70153;SDS011;57519;51.494;-2.626;2022-12-07T00:06:05;11.27;;;7.55;;
70153;SDS011;57519;51.494;-2.626;2022-12-07T00:08:32;14.95;;;8.57;;
70153;SDS011;57519;51.494;-2.626;2022-12-07T00:11:02;13.13;;;8.73;;
70153;SDS011;57519;51.494;-2.626;2022-12-07T00:13:31;12.30;;;7.73;;
70153;SDS011;57519;51.494;-2.626;2022-12-07T00:16:05;12.60;;;7.97;;
70153;SDS011;57519;51.494;-2.626;2022-12-07T00:18:32;11.75;;;8.05;;
70153;SDS011;57519;51.494;-2.626;2022-12-07T00:21:08;10.20;;;7.40;;
70153;SDS011;57519;51.494;-2.626;2022-12-07T00:23:35;14.77;;;8.48;;
70153;SDS011;57519;51.494;-2.626;2022-12-07T00:26:04;11.43;;;7.40;;
70153;SDS011;57519;51.494;-2.626;2022-12-07T00:28:34;12.90;;;8.75;;
70153;SDS011;57519;51.494;-2.626;2022-12-07T00:33:29;17.83;;;9.33;;
70153;SDS011;57519;51.494;-2.626;2022-12-07T00:35:56;13.98;;;8.98;;
70153;SDS011;57519;51.494;-2.626;2022-12-07T00:38:23;11.13;;;8.17;;
70153;SDS011;57519;51.494;-2.626;2022-12-07T00:40:58;15.10;;;9.20;;
70153;SDS011;57519;51.494;-2.626;2022-12-07T00:43:25;11.18;;;8.15;;
70153;SDS011;57519;51.494;-2.626;2022-12-07T00:45:51;14.83;;;8.00;;
70153;SDS011;57519;51.494;-2.626;2022-12-07T00:48:17;12.90;;;9.02;;
70153;SDS011;57519;51.494;-2.626;2022-12-07T00:50:42;14.27;;;7.97;;
70153;SDS011;57519;51.494;-2.626;2022-12-07T00:53:07;18.90;;;9.43;;
70153;SDS011;57519;51.494;-2.626;2022-12-07T00:55:33;12.77;;;8.57;;
70153;SDS011;57519;51.494;-2.626;2022-12-07T00:57:59;9.93;;;7.27;;
70153;SDS011;57519;51.494;-2.626;2022-12-07T01:00:25;11.00;;;7.73;;
70153;SDS011;57519;51.494;-2.626;2022-12-07T01:02:50;17.33;;;8.33;;
70153;SDS011;57519;51.494;-2.626;2022-12-07T01:05:15;13.47;;;8.17;;
70153;SDS011;57519;51.494;-2.626;2022-12-07T01:07:41;12.90;;;7.37;;
70153;SDS011;57519;51.494;-2.626;2022-12-07T01:10:06;12.63;;;8.53;;
70153;SDS011;57519;51.494;-2.626;2022-12-07T01:12:32;12.63;;;7.65;;
70153;SDS011;57519;51.494;-2.626;2022-12-07T01:14:57;13.30;;;7.43;;
70153;SDS011;57519;51.494;-2.626;2022-12-07T01:17:23;14.00;;;8.10;;
70153;SDS011;57519;51.494;-2.626;2022-12-07T01:19:48;16.10;;;7.70;;
70153;SDS011;57519;51.494;-2.626;2022-12-07T01:22:13;16.13;;;8.17;;
70153;SDS011;57519;51.494;-2.626;2022-12-07T01:24:39;12.33;;;8.33;;
70153;SDS011;57519;51.494;-2.626;2022-12-07T01:27:04;14.70;;;6.60;;
70153;SDS011;57519;51.494;-2.626;2022-12-07T01:29:30;14.57;;;8.60;;
70153;SDS011;57519;51.494;-2.626;2022-12-07T01:31:55;12.87;;;8.43;;
70153;SDS011;57519;51.494;-2.626;2022-12-07T01:34:20;13.07;;;7.60;;
70153;SDS011;57519;51.494;-2.626;2022-12-07T01:36:46;12.37;;;8.80;;
70153;SDS011;57519;51.494;-2.626;2022-12-07T01:39:11;12.73;;;8.63;;
70153;SDS011;57519;51.494;-2.626;2022-12-07T01:41:38;18.55;;;8.52;;
70153;SDS011;57519;51.494;-2.626;2022-12-07T01:44:13;12.03;;;8.27;;
70153;SDS011;57519;51.494;-2.626;2022-12-07T01:46:43;12.80;;;7.85;;
70153;SDS011;57519;51.494;-2.626;2022-12-07T01:52:39;14.23;;;7.13;;
70153;SDS011;57519;51.494;-2.626;2022-12-07T01:54:53;13.20;;;7.30;;
70153;SDS011;57519;51.494;-2.626;2022-12-07T01:57:22;12.03;;;6.57;;
70153;SDS011;57519;51.494;-2.626;2022-12-07T01:59:48;11.35;;;7.55;;
70153;SDS011;57519;51.494;-2.626;2022-12-07T02:02:20;12.73;;;8.35;;
70153;SDS011;57519;51.494;-2.626;2022-12-07T02:04:59;13.52;;;8.13;;
70153;SDS011;57519;51.494;-2.626;2022-12-07T02:07:26;13.37;;;7.00;;
70153;SDS011;57519;51.494;-2.626;2022-12-07T02:09:52;17.33;;;8.32;;
70153;SDS011;57519;51.494;-2.626;2022-12-07T02:12:18;12.30;;;8.07;;
70153;SDS011;57519;51.494;-2.626;2022-12-07T02:14:45;12.90;;;8.45;;
70153;SDS011;57519;51.494;-2.626;2022-12-07T02:17:16;16.60;;;9.93;;
70153;SDS011;57519;51.494;-2.626;2022-12-07T02:30:03;14.23;;;8.10;;
70153;SDS011;57519;51.494;-2.626;2022-12-07T02:40:53;13.80;;;7.32;;
70153;SDS011;57519;51.494;-2.626;2022-12-07T02:43:41;12.38;;;8.32;;
70153;SDS011;57519;51.494;-2.626;2022-12-07T02:46:12;13.30;;;7.85;;
70153;SDS011;57519;51.494;-2.626;2022-12-07T02:48:41;11.35;;;8.90;;
70153;SDS011;57519;51.494;-2.626;2022-12-07T02:51:08;16.67;;;7.80;;
70153;SDS011;57519;51.494;-2.626;2022-12-07T02:53:40;12.68;;;7.80;;
70153;SDS011;57519;51.494;-2.626;2022-12-07T02:56:18;13.13;;;8.20;;
70153;SDS011;57519;51.494;-2.626;2022-12-07T03:07:34;11.38;;;8.60;;
70153;SDS011;57519;51.494;-2.626;2022-12-07T03:13:11;10.18;;;8.02;;
70153;SDS011;57519;51.494;-2.626;2022-12-07T03:15:53;10.00;;;7.30;;
70153;SDS011;57519;51.494;-2.626;2022-12-07T03:18:26;13.40;;;8.40;;
70153;SDS011;57519;51.494;-2.626;2022-12-07T03:20:57;13.13;;;9.27;;
70153;SDS011;57519;51.494;-2.626;2022-12-07T03:23:27;15.70;;;8.80;;
70153;SDS011;57519;51.494;-2.626;2022-12-07T03:25:56;19.08;;;7.97;;
70153;SDS011;57519;51.494;-2.626;2022-12-07T03:28:26;12.60;;;7.53;;
70153;SDS011;57519;51.494;-2.626;2022-12-07T03:33:29;10.50;;;7.32;;
70153;SDS011;57519;51.494;-2.626;2022-12-07T03:36:21;13.87;;;8.17;;
70153;SDS011;57519;51.494;-2.626;2022-12-07T03:39:03;13.65;;;7.50;;
70153;SDS011;57519;51.494;-2.626;2022-12-07T03:41:39;11.50;;;7.65;;
70153;SDS011;57519;51.494;-2.626;2022-12-07T03:44:05;17.27;;;8.23;;
70153;SDS011;57519;51.494;-2.626;2022-12-07T03:46:37;13.05;;;8.80;;
70153;SDS011;57519;51.494;-2.626;2022-12-07T03:49:23;12.95;;;8.27;;
70153;SDS011;57519;51.494;-2.626;2022-12-07T03:54:59;12.90;;;8.55;;
70153;SDS011;57519;51.494;-2.626;2022-12-07T03:57:30;12.40;;;7.70;;
70153;SDS011;57519;51.494;-2.626;2022-12-07T03:59:58;13.50;;;8.23;;
70153;SDS011;57519;51.494;-2.626;2022-12-07T04:02:25;10.45;;;7.32;;
70153;SDS011;57519;51.494;-2.626;2022-12-07T04:04:53;12.13;;;8.15;;
70153;SDS011;57519;51.494;-2.626;2022-12-07T04:07:19;17.05;;;8.55;;
70153;SDS011;57519;51.494;-2.626;2022-12-07T04:09:45;11.20;;;7.73;;
70153;SDS011;57519;51.494;-2.626;2022-12-07T04:12:10;11.00;;;7.40;;
70153;SDS011;57519;51.494;-2.626;2022-12-07T04:14:35;11.63;;;8.73;;
70153;SDS011;57519;51.494;-2.626;2022-12-07T04:17:01;13.38;;;7.53;;
70153;SDS011;57519;51.494;-2.626;2022-12-07T04:19:27;15.00;;;8.07;;
70153;SDS011;57519;51.494;-2.626;2022-12-07T04:21:55;12.07;;;8.07;;
70153;SDS011;57519;51.494;-2.626;2022-12-07T04:24:21;12.77;;;7.63;;
70153;SDS011;57519;51.494;-2.626;2022-12-07T04:26:46;11.55;;;7.82;;
70153;SDS011;57519;51.494;-2.626;2022-12-07T04:29:12;12.83;;;7.80;;
70153;SDS011;57519;51.494;-2.626;2022-12-07T04:31:38;12.57;;;8.65;;
70153;SDS011;57519;51.494;-2.626;2022-12-07T04:34:05;13.88;;;8.32;;
70153;SDS011;57519;51.494;-2.626;2022-12-07T04:36:31;10.37;;;7.37;;
70153;SDS011;57519;51.494;-2.626;2022-12-07T04:38:57;15.70;;;7.97;;
70153;SDS011;57519;51.494;-2.626;2022-12-07T04:41:23;11.90;;;8.32;;
70153;SDS011;57519;51.494;-2.626;2022-12-07T04:43:55;15.00;;;8.90;;
70153;SDS011;57519;51.494;-2.626;2022-12-07T04:46:22;16.40;;;8.05;;
70153;SDS011;57519;51.494;-2.626;2022-12-07T04:48:49;12.10;;;8.73;;
70153;SDS011;57519;51.494;-2.626;2022-12-07T04:51:15;14.88;;;8.30;;
70153;SDS011;57519;51.494;-2.626;2022-12-07T04:53:45;15.20;;;7.95;;
70153;SDS011;57519;51.494;-2.626;2022-12-07T04:56:10;13.37;;;7.43;;
70153;SDS011;57519;51.494;-2.626;2022-12-07T04:58:36;12.57;;;7.60;;
70153;SDS011;57519;51.494;-2.626;2022-12-07T05:01:01;13.03;;;7.13;;
70153;SDS011;57519;51.494;-2.626;2022-12-07T05:03:27;14.98;;;8.38;;
70153;SDS011;57519;51.494;-2.626;2022-12-07T05:05:52;8.33;;;7.47;;
70153;SDS011;57519;51.494;-2.626;2022-12-07T05:08:18;12.37;;;6.83;;
70153;SDS011;57519;51.494;-2.626;2022-12-07T05:10:43;15.77;;;7.60;;
70153;SDS011;57519;51.494;-2.626;2022-12-07T05:13:09;8.48;;;7.03;;
70153;SDS011;57519;51.494;-2.626;2022-12-07T05:15:34;10.93;;;7.20;;
70153;SDS011;57519;51.494;-2.626;2022-12-07T05:18:00;12.90;;;6.27;;
70153;SDS011;57519;51.494;-2.626;2022-12-07T05:20:25;13.13;;;7.60;;
70153;SDS011;57519;51.494;-2.626;2022-12-07T05:22:50;10.37;;;7.00;;
70153;SDS011;57519;51.494;-2.626;2022-12-07T05:25:16;8.93;;;7.27;;
70153;SDS011;57519;51.494;-2.626;2022-12-07T05:27:41;9.43;;;7.73;;
70153;SDS011;57519;51.494;-2.626;2022-12-07T05:30:07;13.00;;;7.63;;
70153;SDS011;57519;51.494;-2.626;2022-12-07T05:32:33;15.05;;;7.80;;
70153;SDS011;57519;51.494;-2.626;2022-12-07T05:34:58;15.80;;;7.73;;
70153;SDS011;57519;51.494;-2.626;2022-12-07T05:37:23;12.73;;;7.07;;
70153;SDS011;57519;51.494;-2.626;2022-12-07T05:39:49;11.33;;;7.30;;
70153;SDS011;57519;51.494;-2.626;2022-12-07T05:42:14;14.97;;;8.03;;
70153;SDS011;57519;51.494;-2.626;2022-12-07T05:44:40;10.83;;;7.27;;
70153;SDS011;57519;51.494;-2.626;2022-12-07T05:47:08;10.85;;;7.50;;
70153;SDS011;57519;51.494;-2.626;2022-12-07T05:49:33;14.00;;;7.50;;
70153;SDS011;57519;51.494;-2.626;2022-12-07T05:51:59;12.73;;;7.43;;
70153;SDS011;57519;51.494;-2.626;2022-12-07T05:54:24;16.93;;;7.53;;
70153;SDS011;57519;51.494;-2.626;2022-12-07T05:56:50;19.80;;;8.65;;
70153;SDS011;57519;51.494;-2.626;2022-12-07T05:59:16;12.67;;;8.30;;
70153;SDS011;57519;51.494;-2.626;2022-12-07T06:01:48;12.27;;;8.35;;
70153;SDS011;57519;51.494;-2.626;2022-12-07T06:04:17;10.07;;;6.15;;
70153;SDS011;57519;51.494;-2.626;2022-12-07T06:06:43;12.07;;;7.03;;
70153;SDS011;57519;51.494;-2.626;2022-12-07T06:09:09;11.33;;;8.07;;
70153;SDS011;57519;51.494;-2.626;2022-12-07T06:11:34;12.07;;;7.72;;
70153;SDS011;57519;51.494;-2.626;2022-12-07T06:14:18;15.33;;;6.60;;
70153;SDS011;57519;51.494;-2.626;2022-12-07T06:16:44;12.35;;;8.15;;
70153;SDS011;57519;51.494;-2.626;2022-12-07T06:19:10;11.00;;;7.20;;
70153;SDS011;57519;51.494;-2.626;2022-12-07T06:21:35;12.20;;;8.35;;
70153;SDS011;57519;51.494;-2.626;2022-12-07T06:24:00;12.80;;;6.83;;
70153;SDS011;57519;51.494;-2.626;2022-12-07T06:26:26;10.95;;;6.93;;
70153;SDS011;57519;51.494;-2.626;2022-12-07T06:28:52;9.17;;;7.03;;
70153;SDS011;57519;51.494;-2.626;2022-12-07T06:31:17;12.13;;;7.67;;
70153;SDS011;57519;51.494;-2.626;2022-12-07T06:33:43;9.30;;;7.50;;
70153;SDS011;57519;51.494;-2.626;2022-12-07T06:36:08;11.00;;;6.85;;
70153;SDS011;57519;51.494;-2.626;2022-12-07T06:38:34;10.43;;;8.20;;
70153;SDS011;57519;51.494;-2.626;2022-12-07T06:41:00;12.30;;;8.70;;
70153;SDS011;57519;51.494;-2.626;2022-12-07T06:43:25;14.20;;;8.83;;
70153;SDS011;57519;51.494;-2.626;2022-12-07T06:45:52;11.48;;;7.25;;
70153;SDS011;57519;51.494;-2.626;2022-12-07T06:48:17;16.27;;;7.83;;
70153;SDS011;57519;51.494;-2.626;2022-12-07T06:50:46;13.97;;;7.83;;
70153;SDS011;57519;51.494;-2.626;2022-12-07T06:53:13;11.98;;;7.38;;
70153;SDS011;57519;51.494;-2.626;2022-12-07T06:55:38;18.03;;;7.97;;
70153;SDS011;57519;51.494;-2.626;2022-12-07T06:58:03;13.98;;;7.60;;
70153;SDS011;57519;51.494;-2.626;2022-12-07T07:00:29;11.13;;;7.73;;
70153;SDS011;57519;51.494;-2.626;2022-12-07T07:02:55;11.50;;;7.55;;
70153;SDS011;57519;51.494;-2.626;2022-12-07T07:05:20;11.63;;;8.57;;
70153;SDS011;57519;51.494;-2.626;2022-12-07T07:07:47;13.45;;;8.20;;
70153;SDS011;57519;51.494;-2.626;2022-12-07T07:10:15;12.15;;;7.82;;
70153;SDS011;57519;51.494;-2.626;2022-12-07T07:12:41;12.23;;;8.37;;
70153;SDS011;57519;51.494;-2.626;2022-12-07T07:15:06;8.23;;;7.07;;
70153;SDS011;57519;51.494;-2.626;2022-12-07T07:17:32;11.52;;;7.72;;
70153;SDS011;57519;51.494;-2.626;2022-12-07T07:19:57;11.40;;;8.00;;
70153;SDS011;57519;51.494;-2.626;2022-12-07T07:22:23;9.63;;;7.40;;
70153;SDS011;57519;51.494;-2.626;2022-12-07T07:24:48;11.75;;;7.50;;
70153;SDS011;57519;51.494;-2.626;2022-12-07T07:27:14;10.13;;;8.37;;
70153;SDS011;57519;51.494;-2.626;2022-12-07T07:29:39;17.37;;;8.10;;
70153;SDS011;57519;51.494;-2.626;2022-12-07T07:32:05;14.77;;;9.00;;
70153;SDS011;57519;51.494;-2.626;2022-12-07T07:34:30;12.95;;;7.80;;
70153;SDS011;57519;51.494;-2.626;2022-12-07T07:36:55;16.40;;;8.47;;
70153;SDS011;57519;51.494;-2.626;2022-12-07T07:39:21;12.07;;;7.90;;
70153;SDS011;57519;51.494;-2.626;2022-12-07T07:41:46;14.20;;;7.77;;
70153;SDS011;57519;51.494;-2.626;2022-12-07T07:44:12;14.35;;;8.15;;
70153;SDS011;57519;51.494;-2.626;2022-12-07T07:46:37;15.33;;;8.47;;
70153;SDS011;57519;51.494;-2.626;2022-12-07T07:49:03;11.47;;;7.40;;
70153;SDS011;57519;51.494;-2.626;2022-12-07T07:51:28;14.82;;;8.90;;
70153;SDS011;57519;51.494;-2.626;2022-12-07T07:53:57;11.27;;;7.30;;
70153;SDS011;57519;51.494;-2.626;2022-12-07T07:56:22;15.68;;;9.10;;
70153;SDS011;57519;51.494;-2.626;2022-12-07T07:58:51;14.43;;;7.93;;
70153;SDS011;57519;51.494;-2.626;2022-12-07T08:01:17;17.70;;;10.13;;
70153;SDS011;57519;51.494;-2.626;2022-12-07T08:03:44;14.35;;;9.15;;
70153;SDS011;57519;51.494;-2.626;2022-12-07T08:06:10;15.95;;;8.43;;
70153;SDS011;57519;51.494;-2.626;2022-12-07T08:08:36;16.17;;;9.87;;
70153;SDS011;57519;51.494;-2.626;2022-12-07T08:11:04;16.07;;;9.43;;
70153;SDS011;57519;51.494;-2.626;2022-12-07T08:13:30;18.45;;;9.48;;
70153;SDS011;57519;51.494;-2.626;2022-12-07T08:15:55;16.80;;;9.13;;
70153;SDS011;57519;51.494;-2.626;2022-12-07T08:18:21;15.63;;;9.87;;
70153;SDS011;57519;51.494;-2.626;2022-12-07T08:20:47;13.32;;;8.50;;
70153;SDS011;57519;51.494;-2.626;2022-12-07T08:23:12;13.97;;;8.73;;
70153;SDS011;57519;51.494;-2.626;2022-12-07T08:25:38;14.30;;;8.40;;
70153;SDS011;57519;51.494;-2.626;2022-12-07T08:28:04;13.27;;;7.90;;
70153;SDS011;57519;51.494;-2.626;2022-12-07T08:30:30;14.23;;;9.25;;
70153;SDS011;57519;51.494;-2.626;2022-12-07T08:32:56;12.93;;;9.10;;
70153;SDS011;57519;51.494;-2.626;2022-12-07T08:35:22;18.03;;;10.60;;
70153;SDS011;57519;51.494;-2.626;2022-12-07T08:37:48;16.38;;;10.57;;
70153;SDS011;57519;51.494;-2.626;2022-12-07T08:40:14;16.83;;;10.53;;
70153;SDS011;57519;51.494;-2.626;2022-12-07T08:42:43;17.05;;;11.27;;
70153;SDS011;57519;51.494;-2.626;2022-12-07T08:45:13;20.35;;;10.20;;
70153;SDS011;57519;51.494;-2.626;2022-12-07T08:47:50;21.73;;;10.55;;
70153;SDS011;57519;51.494;-2.626;2022-12-07T08:50:20;16.08;;;10.55;;
70153;SDS011;57519;51.494;-2.626;2022-12-07T08:52:53;16.03;;;9.50;;
70153;SDS011;57519;51.494;-2.626;2022-12-07T08:55:22;16.42;;;10.30;;
70153;SDS011;57519;51.494;-2.626;2022-12-07T08:57:48;19.98;;;10.02;;
70153;SDS011;57519;51.494;-2.626;2022-12-07T09:00:14;17.07;;;9.97;;
70153;SDS011;57519;51.494;-2.626;2022-12-07T09:02:39;17.67;;;10.88;;
70153;SDS011;57519;51.494;-2.626;2022-12-07T09:05:05;17.47;;;10.27;;
70153;SDS011;57519;51.494;-2.626;2022-12-07T09:07:31;18.05;;;9.02;;
70153;SDS011;57519;51.494;-2.626;2022-12-07T09:09:58;17.58;;;10.63;;
70153;SDS011;57519;51.494;-2.626;2022-12-07T09:12:24;20.07;;;10.40;;
70153;SDS011;57519;51.494;-2.626;2022-12-07T09:14:49;13.97;;;10.27;;
70153;SDS011;57519;51.494;-2.626;2022-12-07T09:17:15;18.07;;;9.27;;
70153;SDS011;57519;51.494;-2.626;2022-12-07T09:19:40;14.43;;;8.60;;
70153;SDS011;57519;51.494;-2.626;2022-12-07T09:22:07;14.73;;;9.25;;
70153;SDS011;57519;51.494;-2.626;2022-12-07T09:24:32;16.80;;;10.37;;
70153;SDS011;57519;51.494;-2.626;2022-12-07T09:26:58;16.07;;;9.13;;
70153;SDS011;57519;51.494;-2.626;2022-12-07T09:29:24;18.50;;;12.00;;
70153;SDS011;57519;51.494;-2.626;2022-12-07T09:31:50;23.25;;;11.65;;
70153;SDS011;57519;51.494;-2.626;2022-12-07T09:34:16;18.85;;;10.35;;
70153;SDS011;57519;51.494;-2.626;2022-12-07T09:36:41;19.53;;;9.80;;
70153;SDS011;57519;51.494;-2.626;2022-12-07T09:39:07;14.52;;;10.13;;
70153;SDS011;57519;51.494;-2.626;2022-12-07T09:41:33;15.23;;;9.60;;
70153;SDS011;57519;51.494;-2.626;2022-12-07T09:44:08;17.23;;;11.40;;
70153;SDS011;57519;51.494;-2.626;2022-12-07T09:46:38;19.92;;;11.25;;
70153;SDS011;57519;51.494;-2.626;2022-12-07T09:49:05;19.77;;;10.60;;
70153;SDS011;57519;51.494;-2.626;2022-12-07T09:51:59;22.55;;;10.57;;
70153;SDS011;57519;51.494;-2.626;2022-12-07T09:54:46;17.73;;;10.23;;
70153;SDS011;57519;51.494;-2.626;2022-12-07T09:57:14;16.63;;;10.48;;
70153;SDS011;57519;51.494;-2.626;2022-12-07T09:59:40;14.93;;;9.27;;
70153;SDS011;57519;51.494;-2.626;2022-12-07T10:04:59;19.02;;;11.15;;
70153;SDS011;57519;51.494;-2.626;2022-12-07T10:07:25;21.55;;;11.40;;
70153;SDS011;57519;51.494;-2.626;2022-12-07T10:09:50;15.93;;;9.87;;
70153;SDS011;57519;51.494;-2.626;2022-12-07T10:12:16;15.60;;;10.13;;
70153;SDS011;57519;51.494;-2.626;2022-12-07T10:17:47;17.23;;;10.00;;
70153;SDS011;57519;51.494;-2.626;2022-12-07T10:22:55;17.30;;;9.30;;
70153;SDS011;57519;51.494;-2.626;2022-12-07T10:25:30;16.35;;;10.90;;
70153;SDS011;57519;51.494;-2.626;2022-12-07T10:30:28;19.35;;;10.98;;
70153;SDS011;57519;51.494;-2.626;2022-12-07T10:32:54;21.13;;;11.60;;
70153;SDS011;57519;51.494;-2.626;2022-12-07T10:35:21;18.55;;;11.23;;
70153;SDS011;57519;51.494;-2.626;2022-12-07T10:37:52;16.25;;;11.23;;
70153;SDS011;57519;51.494;-2.626;2022-12-07T10:40:27;23.70;;;11.23;;
70153;SDS011;57519;51.494;-2.626;2022-12-07T10:43:05;20.95;;;11.85;;
70153;SDS011;57519;51.494;-2.626;2022-12-07T10:45:41;19.63;;;11.20;;
70153;SDS011;57519;51.494;-2.626;2022-12-07T10:53:33;17.23;;;9.82;;
70153;SDS011;57519;51.494;-2.626;2022-12-07T11:04:43;9.77;;;6.10;;
70153;SDS011;57519;51.494;-2.626;2022-12-07T11:15:26;14.63;;;7.63;;
70153;SDS011;57519;51.494;-2.626;2022-12-07T11:18:11;22.70;;;8.80;;
70153;SDS011;57519;51.494;-2.626;2022-12-07T11:20:54;13.07;;;8.55;;
70153;SDS011;57519;51.494;-2.626;2022-12-07T11:23:40;22.47;;;10.07;;
70153;SDS011;57519;51.494;-2.626;2022-12-07T11:34:49;25.35;;;11.48;;
70153;SDS011;57519;51.494;-2.626;2022-12-07T11:37:31;26.70;;;11.90;;
70153;SDS011;57519;51.494;-2.626;2022-12-07T11:40:00;19.80;;;12.38;;
70153;SDS011;57519;51.494;-2.626;2022-12-07T11:42:33;21.05;;;10.40;;
70153;SDS011;57519;51.494;-2.626;2022-12-07T11:45:21;25.48;;;11.77;;
70153;SDS011;57519;51.494;-2.626;2022-12-07T11:48:06;20.15;;;10.70;;
70153;SDS011;57519;51.494;-2.626;2022-12-07T11:50:43;21.77;;;10.13;;
70153;SDS011;57519;51.494;-2.626;2022-12-07T11:53:22;13.43;;;8.23;;
70153;SDS011;57519;51.494;-2.626;2022-12-07T11:56:29;17.98;;;9.90;;
70153;SDS011;57519;51.494;-2.626;2022-12-07T12:06:44;20.65;;;11.15;;
70153;SDS011;57519;51.494;-2.626;2022-12-07T12:12:28;22.85;;;11.23;;
70153;SDS011;57519;51.494;-2.626;2022-12-07T12:20:52;43.20;;;18.58;;
70153;SDS011;57519;51.494;-2.626;2022-12-07T12:25:57;26.00;;;15.07;;
70153;SDS011;57519;51.494;-2.626;2022-12-07T12:31:17;15.73;;;9.80;;
70153;SDS011;57519;51.494;-2.626;2022-12-07T12:33:53;16.10;;;8.85;;
70153;SDS011;57519;51.494;-2.626;2022-12-07T12:47:00;28.27;;;14.88;;
70153;SDS011;57519;51.494;-2.626;2022-12-07T12:51:57;21.83;;;12.57;;
70153;SDS011;57519;51.494;-2.626;2022-12-07T12:55:42;16.73;;;11.27;;
70153;SDS011;57519;51.494;-2.626;2022-12-07T12:57:34;21.98;;;12.98;;
70153;SDS011;57519;51.494;-2.626;2022-12-07T13:00:02;21.23;;;12.23;;
70153;SDS011;57519;51.494;-2.626;2022-12-07T13:05:17;22.00;;;11.75;;
70153;SDS011;57519;51.494;-2.626;2022-12-07T13:18:03;17.90;;;9.77;;
70153;SDS011;57519;51.494;-2.626;2022-12-07T13:20:48;18.90;;;10.00;;
70153;SDS011;57519;51.494;-2.626;2022-12-07T13:23:20;17.40;;;9.82;;
70153;SDS011;57519;51.494;-2.626;2022-12-07T13:25:59;15.73;;;9.07;;
70153;SDS011;57519;51.494;-2.626;2022-12-07T13:28:35;13.18;;;8.57;;
70153;SDS011;57519;51.494;-2.626;2022-12-07T13:33:36;12.50;;;6.63;;
70153;SDS011;57519;51.494;-2.626;2022-12-07T13:36:01;10.07;;;5.93;;
70153;SDS011;57519;51.494;-2.626;2022-12-07T13:38:34;10.87;;;6.93;;
70153;SDS011;57519;51.494;-2.626;2022-12-07T13:46:30;16.55;;;8.30;;
70153;SDS011;57519;51.494;-2.626;2022-12-07T13:49:15;14.98;;;6.97;;
70153;SDS011;57519;51.494;-2.626;2022-12-07T13:51:42;6.03;;;4.93;;
70153;SDS011;57519;51.494;-2.626;2022-12-07T13:54:11;9.47;;;5.77;;
70153;SDS011;57519;51.494;-2.626;2022-12-07T13:56:38;16.43;;;7.03;;
70153;SDS011;57519;51.494;-2.626;2022-12-07T13:59:13;10.75;;;6.60;;
70153;SDS011;57519;51.494;-2.626;2022-12-07T14:01:41;14.82;;;7.78;;
70153;SDS011;57519;51.494;-2.626;2022-12-07T14:06:55;15.60;;;8.80;;
70153;SDS011;57519;51.494;-2.626;2022-12-07T14:09:21;21.23;;;11.10;;
70153;SDS011;57519;51.494;-2.626;2022-12-07T14:11:48;13.48;;;6.65;;
70153;SDS011;57519;51.494;-2.626;2022-12-07T14:14:17;11.07;;;6.47;;
70153;SDS011;57519;51.494;-2.626;2022-12-07T14:17:12;12.98;;;6.10;;
70153;SDS011;57519;51.494;-2.626;2022-12-07T14:19:48;8.45;;;4.47;;
70153;SDS011;57519;51.494;-2.626;2022-12-07T14:22:28;13.77;;;5.63;;
70153;SDS011;57519;51.494;-2.626;2022-12-07T14:27:50;5.97;;;4.60;;
70153;SDS011;57519;51.494;-2.626;2022-12-07T14:30:30;7.72;;;5.10;;
70153;SDS011;57519;51.494;-2.626;2022-12-07T14:33:02;11.07;;;4.53;;
70153;SDS011;57519;51.494;-2.626;2022-12-07T14:35:29;11.32;;;4.90;;
70153;SDS011;57519;51.494;-2.626;2022-12-07T14:37:55;6.30;;;5.25;;
70153;SDS011;57519;51.494;-2.626;2022-12-07T14:40:25;6.53;;;5.00;;
70153;SDS011;57519;51.494;-2.626;2022-12-07T14:42:54;7.75;;;4.95;;
70153;SDS011;57519;51.494;-2.626;2022-12-07T14:45:23;9.73;;;4.70;;
70153;SDS011;57519;51.494;-2.626;2022-12-07T14:47:49;10.40;;;4.43;;
70153;SDS011;57519;51.494;-2.626;2022-12-07T14:50:15;8.33;;;4.97;;
70153;SDS011;57519;51.494;-2.626;2022-12-07T14:52:46;9.20;;;4.38;;
70153;SDS011;57519;51.494;-2.626;2022-12-07T14:55:27;7.97;;;5.18;;
70153;SDS011;57519;51.494;-2.626;2022-12-07T14:57:54;6.50;;;5.10;;
70153;SDS011;57519;51.494;-2.626;2022-12-07T15:00:20;6.78;;;5.10;;
70153;SDS011;57519;51.494;-2.626;2022-12-07T15:02:48;9.40;;;5.10;;
70153;SDS011;57519;51.494;-2.626;2022-12-07T15:05:14;9.27;;;4.45;;
70153;SDS011;57519;51.494;-2.626;2022-12-07T15:07:39;9.80;;;5.85;;
70153;SDS011;57519;51.494;-2.626;2022-12-07T15:10:06;10.67;;;5.53;;
70153;SDS011;57519;51.494;-2.626;2022-12-07T15:12:35;10.73;;;6.15;;
70153;SDS011;57519;51.494;-2.626;2022-12-07T15:15:00;11.10;;;5.57;;
70153;SDS011;57519;51.494;-2.626;2022-12-07T15:17:26;10.45;;;5.57;;
70153;SDS011;57519;51.494;-2.626;2022-12-07T15:19:52;8.07;;;4.87;;
70153;SDS011;57519;51.494;-2.626;2022-12-07T15:22:17;6.17;;;4.27;;
70153;SDS011;57519;51.494;-2.626;2022-12-07T15:24:42;7.97;;;4.80;;
70153;SDS011;57519;51.494;-2.626;2022-12-07T15:27:08;8.35;;;4.43;;
70153;SDS011;57519;51.494;-2.626;2022-12-07T15:29:33;6.50;;;5.00;;
70153;SDS011;57519;51.494;-2.626;2022-12-07T15:31:58;6.50;;;4.63;;
70153;SDS011;57519;51.494;-2.626;2022-12-07T15:34:25;8.67;;;5.07;;
70153;SDS011;57519;51.494;-2.626;2022-12-07T15:36:53;9.32;;;5.45;;
70153;SDS011;57519;51.494;-2.626;2022-12-07T15:39:19;8.82;;;4.53;;
70153;SDS011;57519;51.494;-2.626;2022-12-07T15:41:44;8.83;;;4.80;;
70153;SDS011;57519;51.494;-2.626;2022-12-07T15:44:11;7.37;;;4.57;;
70153;SDS011;57519;51.494;-2.626;2022-12-07T15:46:55;8.07;;;4.93;;
70153;SDS011;57519;51.494;-2.626;2022-12-07T15:49:21;9.37;;;5.33;;
70153;SDS011;57519;51.494;-2.626;2022-12-07T15:51:46;8.73;;;4.90;;
70153;SDS011;57519;51.494;-2.626;2022-12-07T15:54:30;10.15;;;5.22;;
70153;SDS011;57519;51.494;-2.626;2022-12-07T15:56:58;6.85;;;4.70;;
70153;SDS011;57519;51.494;-2.626;2022-12-07T15:59:25;8.47;;;5.43;;
70153;SDS011;57519;51.494;-2.626;2022-12-07T16:01:52;9.60;;;5.03;;
70153;SDS011;57519;51.494;-2.626;2022-12-07T16:04:17;7.30;;;4.90;;
70153;SDS011;57519;51.494;-2.626;2022-12-07T16:06:44;7.68;;;4.90;;
70153;SDS011;57519;51.494;-2.626;2022-12-07T16:09:10;5.80;;;4.90;;
70153;SDS011;57519;51.494;-2.626;2022-12-07T16:11:35;8.80;;;4.87;;
70153;SDS011;57519;51.494;-2.626;2022-12-07T16:14:01;7.47;;;4.75;;
70153;SDS011;57519;51.494;-2.626;2022-12-07T16:16:27;12.00;;;5.70;;
70153;SDS011;57519;51.494;-2.626;2022-12-07T16:18:52;8.00;;;5.00;;
70153;SDS011;57519;51.494;-2.626;2022-12-07T16:21:19;5.18;;;4.68;;
70153;SDS011;57519;51.494;-2.626;2022-12-07T16:23:45;8.48;;;5.95;;
70153;SDS011;57519;51.494;-2.626;2022-12-07T16:26:14;9.67;;;5.80;;
70153;SDS011;57519;51.494;-2.626;2022-12-07T16:28:41;5.63;;;4.10;;
70153;SDS011;57519;51.494;-2.626;2022-12-07T16:31:09;7.55;;;4.75;;
70153;SDS011;57519;51.494;-2.626;2022-12-07T16:33:38;6.47;;;5.30;;
70153;SDS011;57519;51.494;-2.626;2022-12-07T16:36:05;8.13;;;4.60;;
70153;SDS011;57519;51.494;-2.626;2022-12-07T16:38:32;7.47;;;5.03;;
70153;SDS011;57519;51.494;-2.626;2022-12-07T16:40:58;11.02;;;5.18;;
70153;SDS011;57519;51.494;-2.626;2022-12-07T16:43:23;6.80;;;4.70;;
70153;SDS011;57519;51.494;-2.626;2022-12-07T16:45:49;8.27;;;5.07;;
70153;SDS011;57519;51.494;-2.626;2022-12-07T16:48:15;10.25;;;5.13;;
70153;SDS011;57519;51.494;-2.626;2022-12-07T16:50:41;6.72;;;5.32;;
70153;SDS011;57519;51.494;-2.626;2022-12-07T16:53:11;7.55;;;5.28;;
70153;SDS011;57519;51.494;-2.626;2022-12-07T16:55:40;8.73;;;5.13;;